createdAt,value
2019-03-19T00:02:15.007Z,86.54
2019-03-19T00:04:43.412Z,86.95
2019-03-19T00:07:31.054Z,87.58
2019-03-19T00:10:18.585Z,88.22
2019-03-19T00:12:47.045Z,88.22
2019-03-19T00:15:34.563Z,88.52
2019-03-19T00:18:22.464Z,88.47
2019-03-19T00:20:50.863Z,88.16
2019-03-19T00:23:38.515Z,88.37
2019-03-19T00:26:26.029Z,88.55
2019-03-19T00:28:54.434Z,88.75
2019-03-19T00:34:11.376Z,88.88
2019-03-19T00:36:39.783Z,88.61
2019-03-19T00:39:08.183Z,88.59
2019-03-19T00:41:55.833Z,87.56
2019-03-19T00:44:24.244Z,86.96
2019-03-19T00:46:52.629Z,86.84
2019-03-19T00:51:55.308Z,88.27
2019-03-19T00:57:17.269Z,88.32
2019-03-19T00:59:45.670Z,88.34
2019-03-19T01:02:14.068Z,88.59
2019-03-19T01:07:16.460Z,89.46
2019-03-19T01:12:18.819Z,89.26
2019-03-19T01:15:06.467Z,89.47
2019-03-19T01:20:41.555Z,88.18
2019-03-19T01:23:29.065Z,87.77
2019-03-19T01:25:57.491Z,87.69
2019-03-19T01:28:44.993Z,87.84
2019-03-19T01:31:13.393Z,88.72
2019-03-19T01:34:00.920Z,89.55
2019-03-19T01:36:29.324Z,90.05
2019-03-19T01:39:16.850Z,90.41
2019-03-19T01:41:45.579Z,90.04
2019-03-19T01:44:13.985Z,89.67
2019-03-19T01:46:42.384Z,89.77
2019-03-19T01:54:19.610Z,88.71
2019-03-19T01:56:48.004Z,87.95
2019-03-19T01:59:35.529Z,87.98
2019-03-19T02:02:03.929Z,87.52
2019-03-19T02:07:26.615Z,88.73
2019-03-19T02:09:55.025Z,89.53
2019-03-19T02:12:42.668Z,89.65
2019-03-19T02:15:30.416Z,89.49
2019-03-19T02:18:17.935Z,88.67
2019-03-19T02:21:05.461Z,87.18
2019-03-19T02:23:52.973Z,87.36
2019-03-19T02:26:21.376Z,87.07
2019-03-19T02:29:10.912Z,86.81
2019-03-19T02:31:39.147Z,87.12
2019-03-19T02:34:26.670Z,87.76
2019-03-19T02:37:14.175Z,87.77
2019-03-19T02:39:42.583Z,86.59
2019-03-19T02:42:30.226Z,86.31
2019-03-19T02:44:58.639Z,86.15
2019-03-19T02:47:46.284Z,88.01
2019-03-19T02:53:07.962Z,90.00
2019-03-19T02:55:36.371Z,91.24
2019-03-19T02:58:44.923Z,91.14
2019-03-19T03:01:32.586Z,90.71
2019-03-19T03:04:00.985Z,91.16
2019-03-19T03:06:29.390Z,91.74
2019-03-19T03:09:17.136Z,91.77
2019-03-19T03:14:19.944Z,92.23
2019-03-19T03:16:48.356Z,91.98
2019-03-19T03:22:04.198Z,91.90
2019-03-19T03:24:51.944Z,92.80
2019-03-19T03:27:20.604Z,93.13
2019-03-19T03:29:49.008Z,92.34
2019-03-19T03:32:17.418Z,91.69
2019-03-19T03:35:05.142Z,91.09
2019-03-19T03:37:52.774Z,90.14
2019-03-19T03:41:01.088Z,89.51
2019-03-19T03:46:16.928Z,88.44
2019-03-19T03:49:04.575Z,87.66
2019-03-19T03:51:32.980Z,87.74
2019-03-19T03:54:20.493Z,89.52
2019-03-19T03:57:01.185Z,90.21
2019-03-19T04:02:25.711Z,90.53
2019-03-19T04:04:54.103Z,91.25
2019-03-19T04:10:55.975Z,91.50
2019-03-19T04:13:43.484Z,90.99
2019-03-19T04:16:31.011Z,90.28
2019-03-19T04:19:18.655Z,91.08
2019-03-19T04:21:47.056Z,90.34
2019-03-19T04:24:15.454Z,89.93
2019-03-19T04:26:43.862Z,90.13
2019-03-19T04:29:31.502Z,89.90
2019-03-19T04:31:59.911Z,89.35
2019-03-19T04:34:47.805Z,88.99
2019-03-19T04:37:16.207Z,88.97
2019-03-19T04:39:44.603Z,88.60
2019-03-19T04:42:13.011Z,87.97
2019-03-19T04:45:00.646Z,87.63
2019-03-19T04:47:29.057Z,87.74
2019-03-19T04:49:57.454Z,87.61
2019-03-19T04:52:25.862Z,86.62
2019-03-19T04:55:13.371Z,86.02
2019-03-19T04:58:01.151Z,85.88
2019-03-19T05:00:48.903Z,85.96
2019-03-19T05:03:36.543Z,85.68
2019-03-19T05:06:05.021Z,86.77
2019-03-19T05:08:52.665Z,86.11
2019-03-19T05:11:40.306Z,86.56
2019-03-19T05:17:15.486Z,87.42
2019-03-19T05:25:45.333Z,87.35
2019-03-19T05:28:33.076Z,87.63
2019-03-19T05:33:54.919Z,86.95
2019-03-19T05:36:23.472Z,87.20
2019-03-19T05:38:51.958Z,86.92
2019-03-19T05:41:20.457Z,87.02
2019-03-19T05:43:48.858Z,87.44
2019-03-19T05:46:17.261Z,87.79
2019-03-19T05:49:04.789Z,87.16
2019-03-19T05:51:33.199Z,86.79
2019-03-19T05:54:20.712Z,86.51
2019-03-19T05:57:08.231Z,85.74
2019-03-19T05:59:55.742Z,85.53
2019-03-19T06:02:43.399Z,85.44
2019-03-19T06:05:51.708Z,85.96
2019-03-19T06:08:20.116Z,84.30
2019-03-19T06:11:07.767Z,81.77
2019-03-19T06:13:55.423Z,79.17
2019-03-19T06:16:23.835Z,77.37
2019-03-19T06:19:11.474Z,77.88
2019-03-19T06:21:39.879Z,77.41
2019-03-19T06:26:55.722Z,73.20
2019-03-19T06:29:43.235Z,71.53
2019-03-19T06:32:30.757Z,70.95
2019-03-19T06:34:59.155Z,72.67
2019-03-19T06:37:46.807Z,74.90
2019-03-19T06:40:55.103Z,75.57
2019-03-19T06:43:42.999Z,71.66
2019-03-19T06:46:30.644Z,68.77
2019-03-19T06:48:59.048Z,70.11
2019-03-19T06:51:49.636Z,71.29
2019-03-19T06:54:37.153Z,68.38
2019-03-19T06:57:24.682Z,62.11
2019-03-19T06:59:53.081Z,55.76
2019-03-19T07:02:40.625Z,51.47
2019-03-19T07:08:23.283Z,45.54
2019-03-19T07:11:11.021Z,43.47
2019-03-19T07:13:58.682Z,41.58
2019-03-19T07:19:14.564Z,41.97
2019-03-19T07:22:02.074Z,40.98
2019-03-19T07:30:10.677Z,44.72
2019-03-19T07:32:58.328Z,47.09
2019-03-19T07:35:45.973Z,48.82
2019-03-19T07:38:14.394Z,52.02
2019-03-19T07:40:42.797Z,56.02
2019-03-19T07:43:11.204Z,58.88
2019-03-19T07:45:58.723Z,62.05
2019-03-19T07:48:46.246Z,64.86
2019-03-19T07:51:14.639Z,68.44
2019-03-19T07:53:43.037Z,67.71
2019-03-19T07:56:11.443Z,67.28
2019-03-19T07:58:45.175Z,64.37
2019-03-19T08:01:09.970Z,58.96
2019-03-19T08:03:57.720Z,54.03
2019-03-19T08:06:45.243Z,49.89
2019-03-19T08:09:13.655Z,49.01
2019-03-19T08:11:42.051Z,47.51
2019-03-19T08:14:29.578Z,44.38
2019-03-19T08:16:57.981Z,43.12
2019-03-19T08:22:00.416Z,39.83
2019-03-19T08:24:28.839Z,38.50
2019-03-19T08:26:57.244Z,37.78
2019-03-19T08:29:25.651Z,38.20
2019-03-19T08:32:13.394Z,37.72
2019-03-19T08:35:00.917Z,37.30
2019-03-19T08:37:29.314Z,38.22
2019-03-19T08:39:57.730Z,36.88
2019-03-19T08:42:45.257Z,36.68
2019-03-19T08:45:53.582Z,37.99
2019-03-19T08:48:22.005Z,38.13
2019-03-19T08:53:37.860Z,40.95
2019-03-19T08:56:06.256Z,46.18
2019-03-19T08:58:53.918Z,48.08
2019-03-19T09:01:22.322Z,47.71
2019-03-19T09:04:10.069Z,46.10
2019-03-19T09:06:57.579Z,44.55
2019-03-19T09:11:59.964Z,42.62
2019-03-19T09:14:28.371Z,41.76
2019-03-19T09:17:16.192Z,41.88
2019-03-19T09:19:44.602Z,42.19
2019-03-19T09:22:12.998Z,46.36
2019-03-19T09:24:41.409Z,48.50
2019-03-19T09:27:09.807Z,46.90
2019-03-19T09:29:38.215Z,45.86
2019-03-19T09:32:06.904Z,47.17
2019-03-19T09:34:35.312Z,48.66
2019-03-19T09:37:03.711Z,48.98
2019-03-19T09:39:32.445Z,50.88
2019-03-19T09:42:00.843Z,52.49
2019-03-19T09:44:29.244Z,52.00
2019-03-19T09:46:57.639Z,50.57
2019-03-19T09:49:26.048Z,48.96
2019-03-19T09:51:54.446Z,49.93
2019-03-19T09:54:42.096Z,57.39
2019-03-19T09:57:10.493Z,61.39
2019-03-19T09:59:38.895Z,63.44
2019-03-19T10:02:07.299Z,65.36
2019-03-19T10:04:35.713Z,64.71
2019-03-19T10:07:23.363Z,64.12
2019-03-19T10:14:59.886Z,56.50
2019-03-19T10:17:47.536Z,55.23
2019-03-19T10:20:35.296Z,52.10
2019-03-19T10:23:03.699Z,53.23
2019-03-19T10:25:51.591Z,54.22
2019-03-19T10:28:19.989Z,53.11
2019-03-19T10:30:48.403Z,52.71
2019-03-19T10:33:16.805Z,51.82
2019-03-19T10:36:04.328Z,52.60
2019-03-19T10:38:32.729Z,54.13
2019-03-19T10:41:20.381Z,54.36
2019-03-19T10:46:22.757Z,58.47
2019-03-19T10:49:10.280Z,57.79
2019-03-19T10:51:38.685Z,54.08
2019-03-19T10:54:07.088Z,52.46
2019-03-19T10:56:35.760Z,53.79
2019-03-19T11:02:18.273Z,51.75
2019-03-19T11:04:46.730Z,51.99
2019-03-19T11:10:02.647Z,50.17
2019-03-19T11:12:31.067Z,48.83
2019-03-19T11:14:59.499Z,47.99
2019-03-19T11:17:47.267Z,47.76
2019-03-19T11:20:55.632Z,47.28
2019-03-19T11:23:24.041Z,47.89
2019-03-19T11:25:54.639Z,50.09
2019-03-19T11:28:22.611Z,50.74
2019-03-19T11:30:51.022Z,51.41
2019-03-19T11:33:19.458Z,51.03
2019-03-19T11:36:07.120Z,52.79
2019-03-19T11:38:35.531Z,51.93
2019-03-19T11:43:58.491Z,50.64
2019-03-19T11:46:26.907Z,50.37
2019-03-19T11:49:14.423Z,50.97
2019-03-19T11:51:42.896Z,52.99
2019-03-19T11:54:11.342Z,53.55
2019-03-19T11:56:39.787Z,56.15
2019-03-19T11:59:08.174Z,56.17
2019-03-19T12:01:36.590Z,55.73
2019-03-19T12:04:24.311Z,57.41
2019-03-19T12:06:52.753Z,57.98
2019-03-19T12:09:21.170Z,55.24
2019-03-19T12:11:49.578Z,54.06
2019-03-19T12:17:05.427Z,52.26
2019-03-19T12:19:53.081Z,53.91
2019-03-19T12:22:21.482Z,52.34
2019-03-19T12:25:09.132Z,54.40
2019-03-19T12:27:37.526Z,55.16
2019-03-19T12:30:26.539Z,53.65
2019-03-19T12:33:14.513Z,54.44
2019-03-19T12:38:16.932Z,52.94
2019-03-19T12:41:04.586Z,51.59
2019-03-19T12:43:33.006Z,50.32
2019-03-19T12:46:01.413Z,49.01
2019-03-19T12:48:49.052Z,50.60
2019-03-19T12:51:36.573Z,49.41
2019-03-19T12:54:44.877Z,51.06
2019-03-19T12:57:32.400Z,51.55
2019-03-19T13:00:19.922Z,53.80
2019-03-19T13:02:48.335Z,52.97
2019-03-19T13:05:16.813Z,53.13
2019-03-19T13:11:30.367Z,54.28
2019-03-19T13:13:58.761Z,53.74
2019-03-19T13:16:27.205Z,54.82
2019-03-19T13:19:14.732Z,55.59
2019-03-19T13:21:43.158Z,54.66
2019-03-19T13:24:11.570Z,52.51
2019-03-19T13:26:40.020Z,53.10
2019-03-19T13:29:08.417Z,52.94
2019-03-19T13:31:36.833Z,52.21
2019-03-19T13:34:24.490Z,51.43
2019-03-19T13:36:52.921Z,51.16
2019-03-19T13:39:40.605Z,51.70
2019-03-19T13:42:28.157Z,52.88
2019-03-19T13:47:44.025Z,51.34
2019-03-19T13:50:52.337Z,51.71
2019-03-19T13:53:20.730Z,52.68
2019-03-19T13:55:49.135Z,51.98
2019-03-19T13:58:17.539Z,52.67
2019-03-19T14:01:05.193Z,53.48
2019-03-19T14:06:40.156Z,53.95
2019-03-19T14:09:48.467Z,53.37
2019-03-19T14:12:16.880Z,54.79
2019-03-19T14:14:45.271Z,53.17
2019-03-19T14:17:32.924Z,53.16
2019-03-19T14:23:28.677Z,53.18
2019-03-19T14:26:16.194Z,53.51
2019-03-19T14:28:44.587Z,53.99
2019-03-19T14:31:12.991Z,54.28
2019-03-19T14:33:41.385Z,54.66
2019-03-19T14:36:29.040Z,56.63
2019-03-19T14:39:16.679Z,56.19
2019-03-19T14:42:04.331Z,55.11
2019-03-19T14:44:32.732Z,55.60
2019-03-19T14:47:20.258Z,55.08
2019-03-19T14:49:49.927Z,53.94
2019-03-19T14:52:38.026Z,55.92
2019-03-19T14:55:46.333Z,55.71
2019-03-19T14:58:14.738Z,53.88
2019-03-19T15:01:18.946Z,54.54
2019-03-19T15:03:59.007Z,54.47
2019-03-19T15:06:46.542Z,54.89
2019-03-19T15:09:34.057Z,54.52
2019-03-19T15:12:02.466Z,52.81
2019-03-19T15:17:37.419Z,52.07
2019-03-19T15:20:45.730Z,53.27
2019-03-19T15:23:14.141Z,52.62
2019-03-19T15:25:42.538Z,50.78
2019-03-19T15:28:30.280Z,50.62
2019-03-19T15:30:58.682Z,50.05
2019-03-19T15:33:46.341Z,50.18
2019-03-19T15:36:14.737Z,52.38
2019-03-19T15:39:02.284Z,51.82
2019-03-19T15:41:30.681Z,52.20
2019-03-19T15:49:07.139Z,52.32
2019-03-19T15:51:35.540Z,51.73
2019-03-19T15:54:03.944Z,53.23
2019-03-19T15:56:44.980Z,53.25
2019-03-19T15:59:32.516Z,53.22
2019-03-19T16:02:01.022Z,53.37
2019-03-19T16:04:48.584Z,52.21
2019-03-19T16:07:17.018Z,51.39
2019-03-19T16:09:45.436Z,52.41
2019-03-19T16:12:14.205Z,51.82
2019-03-19T16:14:42.619Z,50.80
2019-03-19T16:17:30.161Z,50.64
2019-03-19T16:19:58.565Z,50.47
2019-03-19T16:22:26.998Z,50.82
2019-03-19T16:30:37.464Z,51.80
2019-03-19T16:33:05.969Z,52.61
2019-03-19T16:35:53.494Z,53.44
2019-03-19T16:38:21.893Z,53.50
2019-03-19T16:41:09.541Z,53.21
2019-03-19T16:43:57.186Z,53.43
2019-03-19T16:46:25.582Z,53.97
2019-03-19T16:49:13.232Z,53.95
2019-03-19T16:52:00.871Z,55.29
2019-03-19T16:54:29.279Z,54.57
2019-03-19T16:57:16.929Z,54.63
2019-03-19T16:59:45.401Z,54.49
2019-03-19T17:02:13.794Z,54.87
2019-03-19T17:04:42.231Z,54.76
2019-03-19T17:09:58.105Z,55.00
2019-03-19T17:12:26.529Z,55.14
2019-03-19T17:14:54.947Z,55.47
2019-03-19T17:17:23.365Z,55.21
2019-03-19T17:19:51.797Z,55.87
2019-03-19T17:22:20.223Z,56.31
2019-03-19T17:25:07.771Z,55.79
2019-03-19T17:30:30.612Z,55.85
2019-03-19T17:32:59.065Z,56.29
2019-03-19T17:35:27.596Z,56.96
2019-03-19T17:37:56.013Z,56.79
2019-03-19T17:40:24.437Z,56.60
2019-03-19T17:42:52.857Z,56.47
2019-03-19T17:45:40.559Z,56.57
2019-03-19T17:48:28.101Z,56.85
2019-03-19T17:51:36.443Z,56.66
2019-03-19T17:54:24.070Z,56.66
2019-03-19T17:57:11.581Z,56.76
2019-03-19T17:59:40.003Z,57.00
2019-03-19T18:02:08.410Z,57.42
2019-03-19T18:04:55.955Z,57.64
2019-03-19T18:07:24.369Z,57.94
2019-03-19T18:09:52.791Z,58.31
2019-03-19T18:12:21.193Z,58.55
2019-03-19T18:15:08.883Z,58.69
2019-03-19T18:17:37.303Z,60.34
2019-03-19T18:20:45.642Z,60.52
2019-03-19T18:25:48.446Z,60.35
2019-03-19T18:28:16.876Z,60.37
2019-03-19T18:30:45.338Z,61.02
2019-03-19T18:33:33.043Z,61.44
2019-03-19T18:36:01.427Z,61.37
2019-03-19T18:38:48.949Z,61.24
2019-03-19T18:41:17.356Z,61.29
2019-03-19T18:44:04.972Z,62.45
2019-03-19T18:46:33.402Z,62.61
2019-03-19T18:51:55.432Z,64.74
2019-03-19T18:56:57.780Z,65.71
2019-03-19T18:59:26.213Z,66.10
2019-03-19T19:02:13.857Z,65.64
2019-03-19T19:07:16.251Z,66.10
2019-03-19T19:09:44.659Z,65.99
2019-03-19T19:12:32.324Z,66.30
2019-03-19T19:15:19.872Z,66.49
2019-03-19T19:17:48.311Z,67.94
2019-03-19T19:20:56.635Z,69.03
2019-03-19T19:23:25.061Z,68.60
2019-03-19T19:31:42.742Z,67.14
2019-03-19T19:34:11.183Z,67.67
2019-03-19T19:36:58.841Z,67.89
2019-03-19T19:39:27.302Z,67.94
2019-03-19T19:42:14.964Z,67.94
2019-03-19T19:44:43.399Z,68.39
2019-03-19T19:47:11.817Z,69.08
2019-03-19T19:49:40.284Z,69.47
2019-03-19T19:52:08.700Z,69.85
2019-03-19T19:54:56.494Z,69.97
2019-03-19T19:57:44.167Z,69.74
2019-03-19T20:00:31.972Z,69.36
2019-03-19T20:03:11.543Z,69.39
2019-03-19T20:05:30.501Z,69.69
2019-03-19T20:07:59.113Z,69.79
2019-03-19T20:11:07.467Z,69.92
2019-03-19T20:16:23.495Z,71.13
2019-03-19T20:19:31.806Z,70.94
2019-03-19T20:22:00.311Z,71.04
2019-03-19T20:24:47.987Z,70.78
2019-03-19T20:27:35.634Z,70.59
2019-03-19T20:30:44.796Z,71.10
2019-03-19T20:33:24.243Z,71.17
2019-03-19T20:35:43.591Z,71.54
2019-03-19T20:38:11.991Z,71.70
2019-03-19T20:40:59.641Z,71.62
2019-03-19T20:43:28.107Z,71.81
2019-03-19T20:45:56.516Z,71.74
2019-03-19T20:49:04.838Z,71.79
2019-03-19T20:51:33.269Z,72.02
2019-03-19T20:54:01.659Z,72.60
2019-03-19T20:56:30.059Z,73.20
2019-03-19T20:58:58.449Z,73.75
2019-03-19T21:01:26.856Z,73.74
2019-03-19T21:03:55.251Z,74.04
2019-03-19T21:06:23.656Z,74.28
2019-03-19T21:08:52.054Z,74.23
2019-03-19T21:11:20.457Z,74.51
2019-03-19T21:14:07.968Z,74.91
2019-03-19T21:16:57.374Z,74.94
2019-03-19T21:19:25.622Z,74.71
2019-03-19T21:21:54.006Z,74.50
2019-03-19T21:24:22.406Z,74.28
2019-03-19T21:26:50.818Z,74.35
2019-03-19T21:32:25.807Z,74.46
2019-03-19T21:35:13.462Z,74.00
2019-03-19T21:38:01.108Z,73.56
2019-03-19T21:40:29.520Z,74.05
2019-03-19T21:43:17.032Z,73.70
2019-03-19T21:48:38.789Z,73.38
2019-03-19T21:51:26.315Z,73.64
2019-03-19T21:53:54.726Z,73.41
2019-03-19T21:56:42.240Z,73.15
2019-03-19T21:59:10.652Z,72.95
2019-03-19T22:01:58.401Z,72.74
2019-03-19T22:04:26.815Z,72.64
2019-03-19T22:07:14.469Z,73.03
2019-03-19T22:09:42.871Z,73.38
2019-03-19T22:14:45.267Z,74.80
2019-03-19T22:17:13.681Z,75.48
2019-03-19T22:20:01.317Z,75.46
2019-03-19T22:22:49.021Z,75.84
2019-03-19T22:25:17.371Z,76.17
2019-03-19T22:28:05.024Z,76.74
2019-03-19T22:30:52.580Z,76.37
2019-03-19T22:33:23.190Z,76.37
2019-03-19T22:35:51.098Z,76.15
2019-03-19T22:38:19.504Z,76.11
2019-03-19T22:40:47.906Z,75.98
2019-03-19T22:45:50.681Z,75.61
2019-03-19T22:48:19.088Z,75.75
2019-03-19T22:50:47.484Z,75.83
2019-03-19T22:53:15.894Z,76.06
2019-03-19T22:56:03.622Z,76.22
2019-03-19T22:58:51.152Z,76.20
2019-03-19T23:01:19.563Z,76.64
2019-03-19T23:03:47.958Z,76.61
2019-03-19T23:06:16.347Z,76.92
2019-03-19T23:09:24.730Z,76.82
2019-03-19T23:11:53.139Z,76.30
2019-03-19T23:15:01.439Z,75.94
2019-03-19T23:17:29.844Z,75.80
2019-03-19T23:20:17.482Z,75.38
2019-03-19T23:22:45.893Z,75.09
2019-03-19T23:25:54.200Z,75.05
2019-03-19T23:28:22.608Z,75.74
2019-03-19T23:31:10.354Z,77.04
2019-03-19T23:33:38.755Z,77.65
2019-03-19T23:36:07.169Z,77.65
2019-03-19T23:38:57.991Z,77.45
2019-03-19T23:44:13.832Z,77.69
2019-03-19T23:46:42.229Z,77.57
2019-03-19T23:49:10.640Z,77.71
2019-03-19T23:54:26.494Z,77.91
2019-03-19T23:57:07.231Z,78.06
2019-03-19T23:59:54.885Z,78.17
